Time;durP1;ratioP1;P1;durP2;ratioP2;P2;SDS_P1;SDS_P2;PMS_P1;PMS_P2;Temp;Humidity;BMP_temperature;BMP_pressure;BME280_temperature;BME280_humidity;BME280_pressure;Samples;Min_cycle;Max_cycle;Signal;HPM_P1;HPM_P2
2021/03/31 00:01:50;;;;;;;6.22;3.85;;;9.90;99.90;;;;;;6278622;28;20040;-81
2021/03/31 00:04:51;;;;;;;5.78;4.03;;;9.70;99.90;;;;;;6294763;28;20143;-82
2021/03/31 00:07:53;;;;;;;7.82;3.78;;;9.60;99.90;;;;;;6277659;28;20190;-80
2021/03/31 00:10:54;;;;;;;5.00;3.67;;;9.50;99.90;;;;;;6278236;28;20035;-80
2021/03/31 00:13:55;;;;;;;5.43;3.67;;;;;;;;;;6277810;28;20040;-81
2021/03/31 00:16:56;;;;;;;6.47;3.67;;;;;;;;;;6294352;28;20070;-80
2021/03/31 00:19:57;;;;;;;7.40;3.80;;;;;;;;;;6278070;28;20032;-80
2021/03/31 00:22:58;;;;;;;6.57;4.10;;;;;;;;;;6295835;28;20040;-81
2021/03/31 00:25:59;;;;;;;5.97;4.15;;;;;;;;;;6294654;28;20033;-81
2021/03/31 00:29:00;;;;;;;10.25;4.57;;;;;;;;;;6294287;28;20107;-81
2021/03/31 00:32:01;;;;;;;6.75;3.90;;;9.30;99.90;;;;;;6293093;28;20050;-81
2021/03/31 00:35:02;;;;;;;4.22;3.60;;;;;;;;;;6295283;28;20040;-80
2021/03/31 00:38:03;;;;;;;8.90;5.07;;;9.20;99.90;;;;;;6277585;28;20074;-82
2021/03/31 00:41:04;;;;;;;6.32;4.07;;;9.40;99.90;;;;;;6276579;28;20143;-82
2021/03/31 00:44:05;;;;;;;6.00;3.22;;;9.40;97.00;;;;;;6260737;28;20123;-80
2021/03/31 00:47:05;;;;;;;8.63;4.22;;;9.50;95.80;;;;;;6260656;28;20029;-82
2021/03/31 00:50:08;;;;;;;6.10;3.58;;;9.70;96.00;;;;;;6260730;28;20082;-81
2021/03/31 00:53:09;;;;;;;5.95;4.00;;;9.80;94.50;;;;;;6277083;28;20421;-80
2021/03/31 00:56:09;;;;;;;5.80;3.55;;;9.80;95.30;;;;;;6276940;28;20109;-81
2021/03/31 00:59:10;;;;;;;5.40;3.40;;;10.20;97.30;;;;;;6260256;28;20037;-81
2021/03/31 01:02:10;;;;;;;5.72;3.60;;;9.70;99.90;;;;;;6260340;28;20033;-81
2021/03/31 01:05:13;;;;;;;5.53;3.67;;;9.60;99.90;;;;;;6260379;28;20032;-80
2021/03/31 01:08:14;;;;;;;6.60;3.58;;;9.50;99.90;;;;;;6259679;28;20378;-81
2021/03/31 01:11:35;;;;;;;6.15;4.00;;;9.50;99.90;;;;;;6276463;28;20033;-81
2021/03/31 01:14:44;;;;;;;7.70;3.78;;;9.40;99.90;;;;;;6261112;28;20383;-82
2021/03/31 01:17:55;;;;;;;7.10;3.80;;;9.30;99.90;;;;;;6294435;28;20108;-82
2021/03/31 01:20:56;;;;;;;5.50;4.00;;;;;;;;;;6293012;28;20048;-82
2021/03/31 01:24:41;;;;;;;5.13;3.90;;;9.30;99.90;;;;;;6292867;28;20021;-81
2021/03/31 01:27:56;;;;;;;5.72;3.95;;;9.50;99.90;;;;;;6294580;28;20507;-81
2021/03/31 01:31:18;;;;;;;7.13;3.70;;;9.40;99.90;;;;;;6275818;28;20039;-80
2021/03/31 01:34:41;;;;;;;5.57;3.63;;;9.10;99.90;;;;;;6294056;28;20028;-81
2021/03/31 01:38:03;;;;;;;6.00;4.00;;;9.10;99.90;;;;;;6275565;28;20275;-81
2021/03/31 01:41:04;;;;;;;7.50;3.92;;;9.00;99.90;;;;;;6258934;28;20095;-81
2021/03/31 01:44:07;;;;;;;6.07;3.92;;;8.80;99.90;;;;;;6259375;28;20028;-81
2021/03/31 01:47:08;;;;;;;10.68;4.45;;;8.60;99.90;;;;;;6276110;28;20462;-82
2021/03/31 01:50:09;;;;;;;6.18;4.22;;;8.40;99.90;;;;;;6275724;28;20074;-80
2021/03/31 01:53:09;;;;;;;6.70;4.55;;;8.30;99.90;;;;;;6258828;28;20028;-81
2021/03/31 01:56:10;;;;;;;7.30;3.97;;;8.10;99.90;;;;;;6258752;28;20485;-81
2021/03/31 01:59:10;;;;;;;10.15;4.20;;;8.10;99.90;;;;;;6275872;28;20036;-81
2021/03/31 02:02:11;;;;;;;6.97;3.83;;;8.10;99.90;;;;;;6258358;28;20041;-81
2021/03/31 02:05:12;;;;;;;6.22;3.97;;;8.00;99.90;;;;;;6275408;28;20060;-81
2021/03/31 02:08:12;;;;;;;7.50;4.18;;;8.10;99.90;;;;;;6274758;28;20029;-80
2021/03/31 02:11:14;;;;;;;6.22;3.67;;;8.20;99.90;;;;;;6275750;28;20032;-81
2021/03/31 02:14:19;;;;;;;7.10;4.35;;;8.20;99.90;;;;;;6292335;28;20020;-81
2021/03/31 02:17:22;;;;;;;5.40;4.32;;;9.20;99.90;;;;;;6275122;28;20039;-80
2021/03/31 02:20:23;;;;;;;8.40;4.13;;;8.40;99.90;;;;;;6275637;28;20031;-81
2021/03/31 02:23:23;;;;;;;5.53;3.92;;;8.30;99.90;;;;;;6274992;28;20040;-81
2021/03/31 02:26:26;;;;;;;8.85;4.45;;;8.30;99.90;;;;;;6275655;28;20466;-81
2021/03/31 02:29:27;;;;;;;6.20;4.55;;;8.30;99.90;;;;;;6274811;28;20032;-82
2021/03/31 02:32:28;;;;;;;9.27;4.10;;;8.40;99.90;;;;;;6275240;28;20028;-80
2021/03/31 02:35:29;;;;;;;6.93;4.43;;;8.50;99.90;;;;;;6274757;28;20024;-80
2021/03/31 02:38:30;;;;;;;7.43;4.10;;;8.50;99.90;;;;;;6274893;28;20028;-80
2021/03/31 02:41:30;;;;;;;6.28;3.67;;;8.60;99.90;;;;;;6273839;28;20052;-81
2021/03/31 02:44:31;;;;;;;7.45;4.00;;;8.50;99.90;;;;;;6257842;28;20037;-80
2021/03/31 02:47:31;;;;;;;7.07;4.88;;;8.50;99.90;;;;;;6291318;28;20459;-81
2021/03/31 02:50:32;;;;;;;5.50;3.90;;;8.50;99.90;;;;;;6257575;28;20421;-80
2021/03/31 02:53:33;;;;;;;9.23;3.97;;;8.50;99.90;;;;;;6274466;28;20447;-80
2021/03/31 02:56:33;;;;;;;6.93;4.03;;;8.40;99.90;;;;;;6290956;28;20036;-82
2021/03/31 02:59:34;;;;;;;8.98;4.18;;;8.30;99.90;;;;;;6274601;28;20024;-81
2021/03/31 03:02:36;;;;;;;6.28;4.00;;;8.10;99.90;;;;;;6274061;28;20047;-81
2021/03/31 03:05:36;;;;;;;8.40;4.63;;;8.00;99.90;;;;;;6257997;28;20398;-80
2021/03/31 03:08:37;;;;;;;5.55;3.83;;;7.90;99.90;;;;;;6274546;28;20128;-82
2021/03/31 03:11:38;;;;;;;9.20;4.25;;;7.90;99.90;;;;;;6274371;28;20095;-80
2021/03/31 03:14:41;;;;;;;4.97;3.95;;;7.80;99.90;;;;;;6274128;28;20032;-80
2021/03/31 03:17:42;;;;;;;5.13;4.22;;;7.70;99.90;;;;;;6274703;28;20032;-81
2021/03/31 03:20:43;;;;;;;9.43;4.60;;;;;;;;;;6279600;28;20044;-80
2021/03/31 03:23:43;;;;;;;7.68;4.70;;;8.00;99.90;;;;;;6279312;28;20032;-80
2021/03/31 03:26:44;;;;;;;7.43;5.00;;;8.40;99.90;;;;;;6279432;28;20604;-80
2021/03/31 03:29:46;;;;;;;9.18;4.30;;;8.40;99.90;;;;;;6262822;28;20028;-82
2021/03/31 03:32:48;;;;;;;6.22;4.30;;;8.40;99.90;;;;;;6279593;28;20108;-80
2021/03/31 03:35:49;;;;;;;7.65;3.90;;;;;;;;;;6279172;28;20035;-80
2021/03/31 03:38:53;;;;;;;8.57;4.72;;;;;;;;;;6279144;28;20032;-80
2021/03/31 03:41:54;;;;;;;7.72;4.43;;;;;;;;;;6295035;28;20055;-81
2021/03/31 03:44:57;;;;;;;10.15;4.68;;;;;;;;;;6295497;28;20064;-80
2021/03/31 03:48:00;;;;;;;6.22;4.32;;;;;;;;;;6295498;28;20619;-81
2021/03/31 03:51:08;;;;;;;6.25;4.43;;;;;;;;;;6296330;28;20050;-81
2021/03/31 03:54:09;;;;;;;8.60;4.82;;;;;;;;;;6278959;28;20039;-81
2021/03/31 03:57:10;;;;;;;4.72;3.78;;;;;;;;;;6295060;28;20028;-80
2021/03/31 04:00:15;;;;;;;6.55;4.10;;;;;;;;;;6295118;28;20021;-82
2021/03/31 04:03:18;;;;;;;5.57;4.60;;;;;;;;;;6294715;28;20097;-83
2021/03/31 04:06:21;;;;;;;7.95;4.05;;;;;;;;;;6278695;28;20033;-80
2021/03/31 04:09:25;;;;;;;8.52;4.10;;;;;;;;;;6296705;28;20025;-79
2021/03/31 04:12:25;;;;;;;4.72;4.03;;;7.90;99.90;;;;;;6295200;28;20032;-81
2021/03/31 04:15:26;;;;;;;8.20;4.47;;;7.60;99.90;;;;;;6294866;28;20083;-80
2021/03/31 04:18:27;;;;;;;6.20;4.43;;;7.40;99.90;;;;;;6278659;28;20082;-82
2021/03/31 04:21:37;;;;;;;8.20;4.15;;;7.30;99.90;;;;;;6260384;28;20090;-80
2021/03/31 04:24:38;;;;;;;7.97;4.53;;;7.30;99.90;;;;;;6261298;28;20549;-82
2021/03/31 04:27:38;;;;;;;8.27;4.38;;;7.40;99.90;;;;;;6278056;28;20036;-81
2021/03/31 04:30:39;;;;;;;6.15;5.55;;;7.50;99.90;;;;;;6260737;28;20021;-80
2021/03/31 04:33:40;;;;;;;9.05;5.75;;;7.60;99.90;;;;;;6278184;28;20074;-80
2021/03/31 04:36:41;;;;;;;11.48;5.78;;;7.50;99.90;;;;;;6277511;28;20028;-80
2021/03/31 04:39:42;;;;;;;8.50;5.45;;;7.60;99.90;;;;;;6261307;28;20032;-80
2021/03/31 04:42:43;;;;;;;10.10;4.28;;;;;;;;;;6260400;28;20063;-81
2021/03/31 04:45:44;;;;;;;9.18;4.78;;;7.80;99.90;;;;;;6277828;28;20044;-81
2021/03/31 04:48:44;;;;;;;6.30;4.50;;;7.90;99.90;;;;;;6277128;28;20037;-81
2021/03/31 04:51:45;;;;;;;9.93;4.88;;;7.90;99.90;;;;;;6277868;28;20036;-81
2021/03/31 04:54:45;;;;;;;9.05;4.95;;;8.00;99.90;;;;;;6277224;28;20394;-80
2021/03/31 04:57:46;;;;;;;8.20;4.65;;;7.90;99.90;;;;;;6277161;28;20029;-82
2021/03/31 05:00:46;;;;;;;8.48;4.75;;;7.80;99.90;;;;;;6277226;28;20063;-80
2021/03/31 05:03:47;;;;;;;6.82;4.63;;;7.70;99.90;;;;;;6276731;28;20036;-82
2021/03/31 05:06:48;;;;;;;5.63;4.78;;;7.80;99.90;;;;;;6277213;28;20442;-80
2021/03/31 05:09:48;;;;;;;15.52;8.60;;;7.80;99.90;;;;;;6277138;28;20025;-81
2021/03/31 05:12:49;;;;;;;7.07;4.68;;;7.80;99.90;;;;;;6276674;28;20028;-80
2021/03/31 05:15:50;;;;;;;8.45;5.43;;;7.70;99.90;;;;;;6276669;28;20429;-82
2021/03/31 05:18:50;;;;;;;9.25;5.57;;;7.50;99.90;;;;;;6277111;28;20033;-81
2021/03/31 05:21:51;;;;;;;6.90;4.78;;;7.50;99.90;;;;;;6276706;28;20051;-81
2021/03/31 05:24:52;;;;;;;6.40;5.25;;;7.50;99.90;;;;;;6259886;28;20028;-82
2021/03/31 05:27:56;;;;;;;9.32;6.60;;;7.50;99.90;;;;;;6276218;28;20078;-82
2021/03/31 05:30:56;;;;;;;11.55;5.80;;;7.30;99.90;;;;;;6291200;28;20032;-82
2021/03/31 05:33:57;;;;;;;9.45;5.20;;;7.30;99.90;;;;;;6259391;28;20035;-82
2021/03/31 05:36:57;;;;;;;8.60;5.43;;;7.20;99.90;;;;;;6259315;28;20056;-82
2021/03/31 05:39:58;;;;;;;6.80;5.38;;;;;;;;;;6276173;28;20494;-81
2021/03/31 05:43:00;;;;;;;22.52;5.82;;;;;;;;;;6291297;28;20423;-85
2021/03/31 05:46:01;;;;;;;10.55;5.00;;;;;;;;;;6293225;28;20056;-83
2021/03/31 05:49:02;;;;;;;8.20;5.32;;;;;;;;;;6275294;28;20119;-82
2021/03/31 05:52:04;;;;;;;6.82;5.07;;;;;;;;;;6292347;28;20035;-81
2021/03/31 05:55:09;;;;;;;6.50;4.63;;;;;;;;;;6275671;28;20028;-79
2021/03/31 05:58:10;;;;;;;7.63;4.82;;;;;;;;;;6292246;28;20028;-79
2021/03/31 06:01:11;;;;;;;10.82;4.50;;;;;;;;;;6292154;28;20109;-81
2021/03/31 06:04:12;;;;;;;7.15;4.28;;;;;;;;;;6292238;28;20028;-79
2021/03/31 06:07:13;;;;;;;9.93;4.68;;;9.90;99.60;;;;;;6292018;28;20067;-79
2021/03/31 06:10:18;;;;;;;7.20;4.45;;;11.10;99.00;;;;;;6274821;28;20036;-80
2021/03/31 06:13:18;;;;;;;17.48;9.98;;;11.60;93.10;;;;;;6291736;28;20036;-80
2021/03/31 06:16:47;;;;;;;22.63;9.85;;;11.70;80.90;;;;;;6275376;28;20066;-80
2021/03/31 06:19:48;;;;;;;13.93;5.85;;;12.10;77.00;;;;;;6292367;28;20064;-80
2021/03/31 06:23:06;;;;;;;13.52;5.18;;;12.50;74.40;;;;;;6291749;28;20040;-80
2021/03/31 06:26:21;;;;;;;9.57;5.75;;;12.80;72.30;;;;;;6261770;28;20036;-80
2021/03/31 06:29:22;;;;;;;12.55;5.88;;;13.00;71.70;;;;;;6275422;28;20490;-80
2021/03/31 06:32:22;;;;;;;8.70;4.70;;;13.20;70.00;;;;;;6275171;28;20052;-81
2021/03/31 06:35:27;;;;;;;11.50;5.03;;;13.50;69.90;;;;;;6258387;28;20031;-79
2021/03/31 06:38:29;;;;;;;9.93;4.88;;;13.90;69.40;;;;;;6289464;28;20055;-80
2021/03/31 06:41:32;;;;;;;8.73;4.78;;;14.10;69.60;;;;;;6273906;28;20055;-80
2021/03/31 06:48:01;;;;;;;8.20;3.92;;;15.00;66.80;;;;;;6292319;28;20409;-80
2021/03/31 06:51:01;;;;;;;8.27;5.32;;;15.30;79.90;;;;;;6274954;28;20033;-80
2021/03/31 06:54:16;;;;;;;7.75;4.60;;;15.70;82.90;;;;;;6290831;28;20032;-80
2021/03/31 06:57:28;;;;;;;7.47;4.28;;;15.70;66.10;;;;;;6290654;28;20036;-80
2021/03/31 07:00:36;;;;;;;5.50;4.22;;;15.70;63.50;;;;;;6290563;28;20025;-80
2021/03/31 07:03:37;;;;;;;6.57;4.53;;;15.70;67.20;;;;;;6257645;28;20438;-83
2021/03/31 07:06:37;;;;;;;5.55;4.47;;;16.00;89.10;;;;;;6257659;28;20031;-84
2021/03/31 07:09:38;;;;;;;10.15;4.50;;;16.30;90.30;;;;;;6257908;28;20111;-82
2021/03/31 07:12:46;;;;;;;9.32;4.28;;;16.30;90.90;;;;;;6289870;28;20068;-81
2021/03/31 07:15:46;;;;;;;7.70;4.32;;;17.90;79.90;;;;;;6273209;28;20043;-82
2021/03/31 07:18:47;;;;;;;7.28;3.90;;;;;;;;;;6272903;28;20020;-81
2021/03/31 07:21:48;;;;;;;6.05;4.45;;;17.60;79.50;;;;;;6291407;28;20107;-84
2021/03/31 07:24:49;;;;;;;7.32;4.60;;;17.80;76.30;;;;;;6257247;28;20033;-83
2021/03/31 07:27:49;;;;;;;5.80;4.30;;;17.90;73.90;;;;;;6273506;28;20035;-82
2021/03/31 07:30:50;;;;;;;6.40;4.53;;;18.10;84.20;;;;;;6274115;28;20032;-82
2021/03/31 07:34:15;;;;;;;7.57;4.35;;;17.90;68.70;;;;;;6256620;28;20033;-82
2021/03/31 07:37:16;;;;;;;5.50;4.32;;;18.70;87.50;;;;;;6290517;28;20033;-86
2021/03/31 07:40:18;;;;;;;7.68;4.10;;;19.00;86.50;;;;;;6258869;28;20028;-82
2021/03/31 07:43:38;;;;;;;7.17;4.27;;;19.60;71.20;;;;;;6257435;28;20060;-83
2021/03/31 07:46:40;;;;;;;6.35;3.85;;;19.70;82.80;;;;;;6257097;28;20287;-83
2021/03/31 07:49:41;;;;;;;7.07;4.05;;;;;;;;;;6257713;28;20039;-83
2021/03/31 07:53:12;;;;;;;7.22;3.70;;;20.80;70.00;;;;;;6289751;28;20028;-83
2021/03/31 07:56:17;;;;;;;9.70;4.03;;;21.30;65.90;;;;;;6268805;28;20047;-82
2021/03/31 07:59:21;;;;;;;6.20;3.80;;;21.90;77.50;;;;;;6273058;28;20104;-81
2021/03/31 08:02:22;;;;;;;7.43;3.85;;;22.20;76.70;;;;;;6256340;28;20090;-80
2021/03/31 08:05:23;;;;;;;7.13;3.60;;;;;;;;;;6275197;28;20033;-82
2021/03/31 08:08:26;;;;;;;8.65;3.88;;;23.00;54.70;;;;;;6294965;28;20099;-89
2021/03/31 08:11:36;;;;;;;5.38;4.30;;;23.30;74.60;;;;;;6277342;28;20382;-85
2021/03/31 08:14:41;;;;;;;7.03;4.15;;;23.50;44.40;;;;;;6294012;28;20029;-87
2021/03/31 08:17:42;;;;;;;7.07;4.13;;;24.10;42.60;;;;;;6261074;28;20128;-87
2021/03/31 08:20:42;;;;;;;6.75;3.97;;;24.40;52.90;;;;;;6261406;28;20024;-86
2021/03/31 08:23:44;;;;;;;6.95;4.63;;;24.50;38.80;;;;;;6261186;28;20048;-88
2021/03/31 08:26:46;;;;;;;6.63;3.83;;;;;;;;;;6261714;28;20055;-85
2021/03/31 08:29:49;;;;;;;10.85;4.28;;;25.60;40.10;;;;;;6294226;28;20025;-87
2021/03/31 08:32:50;;;;;;;5.45;3.88;;;24.80;40.80;;;;;;6260527;28;20029;-84
2021/03/31 08:35:50;;;;;;;6.60;3.80;;;25.30;40.60;;;;;;6260978;28;20120;-84
2021/03/31 08:38:55;;;;;;;6.22;3.92;;;25.20;39.70;;;;;;6261023;28;20029;-82
2021/03/31 08:41:57;;;;;;;7.72;4.00;;;25.60;40.20;;;;;;6260549;28;20519;-82
2021/03/31 08:45:02;;;;;;;6.50;4.25;;;26.20;41.20;;;;;;6260589;28;20060;-85
2021/03/31 08:48:02;;;;;;;5.93;3.90;;;26.80;38.70;;;;;;6262503;28;20032;-85
2021/03/31 08:51:12;;;;;;;5.53;3.70;;;26.80;37.90;;;;;;6260806;28;20036;-86
2021/03/31 08:54:13;;;;;;;8.65;3.80;;;27.40;37.40;;;;;;6260241;28;20486;-84
2021/03/31 08:57:21;;;;;;;5.20;4.07;;;27.60;36.90;;;;;;6277045;28;20025;-87
2021/03/31 09:00:22;;;;;;;5.55;3.65;;;28.20;35.50;;;;;;6296090;28;20053;-83
2021/03/31 09:03:22;;;;;;;7.83;4.30;;;28.10;35.00;;;;;;6297230;28;20036;-81
2021/03/31 09:06:23;;;;;;;5.73;3.63;;;27.60;35.70;;;;;;6259740;28;20035;-83
2021/03/31 09:09:24;;;;;;;7.77;4.57;;;28.70;35.60;;;;;;6276783;28;20039;-85
2021/03/31 09:12:25;;;;;;;9.10;4.67;;;28.80;34.80;;;;;;6275534;28;20024;-80
2021/03/31 09:15:26;;;;;;;6.72;4.07;;;29.00;35.50;;;;;;6276516;28;20039;-86
2021/03/31 09:18:27;;;;;;;7.27;4.40;;;29.30;35.90;;;;;;6259899;28;20414;-84
2021/03/31 09:21:29;;;;;;;6.30;4.70;;;29.50;35.80;;;;;;6259999;28;20035;-81
2021/03/31 09:24:29;;;;;;;6.35;4.70;;;30.10;34.40;;;;;;6293427;28;20033;-86
2021/03/31 09:27:31;;;;;;;7.83;4.47;;;30.90;36.50;;;;;;6260078;28;20535;-85
2021/03/31 09:30:32;;;;;;;11.63;5.47;;;;;;;;;;6276180;28;20029;-83
2021/03/31 09:33:34;;;;;;;14.18;5.03;;;30.30;43.90;;;;;;6294486;28;20029;-85
2021/03/31 09:36:35;;;;;;;12.95;5.70;;;30.30;47.50;;;;;;6259516;28;20043;-84
2021/03/31 09:39:40;;;;;;;10.33;5.30;;;30.40;37.20;;;;;;6259174;28;20037;-83
2021/03/31 09:42:41;;;;;;;11.82;6.60;;;30.50;37.20;;;;;;6274676;28;20314;-84
2021/03/31 09:45:41;;;;;;;11.95;6.68;;;30.80;38.20;;;;;;6270601;28;20107;-81
2021/03/31 09:48:42;;;;;;;9.03;6.20;;;30.50;36.10;;;;;;6274619;28;20390;-87
2021/03/31 09:51:44;;;;;;;10.70;6.13;;;30.50;35.20;;;;;;6258497;28;20374;-83
2021/03/31 09:54:46;;;;;;;7.55;5.35;;;30.30;36.50;;;;;;6258420;28;20478;-84
2021/03/31 09:57:48;;;;;;;8.68;6.07;;;30.50;36.50;;;;;;6258965;28;20031;-84
2021/03/31 10:00:49;;;;;;;10.95;7.32;;;30.50;36.00;;;;;;6258494;28;20470;-86
2021/03/31 10:03:51;;;;;;;12.03;7.93;;;30.40;36.40;;;;;;6258153;28;20047;-84
2021/03/31 10:07:17;;;;;;;11.65;8.27;;;30.60;35.90;;;;;;6275239;28;20025;-85
2021/03/31 10:10:17;;;;;;;15.93;9.07;;;30.80;34.90;;;;;;6272998;28;20127;-87
2021/03/31 10:13:19;;;;;;;11.63;8.40;;;30.80;36.30;;;;;;6275094;28;20082;-86
2021/03/31 10:16:20;;;;;;;15.05;8.95;;;30.80;35.70;;;;;;6258002;28;20558;-85
2021/03/31 10:19:21;;;;;;;16.95;9.65;;;30.70;37.40;;;;;;6257975;28;20071;-84
2021/03/31 10:22:22;;;;;;;14.83;8.50;;;30.80;37.60;;;;;;6273106;28;20040;-85
2021/03/31 10:25:35;;;;;;;11.88;9.27;;;30.90;37.40;;;;;;6257519;28;20262;-84
2021/03/31 10:28:36;;;;;;;13.07;8.95;;;31.10;37.70;;;;;;6257038;28;20410;-85
2021/03/31 10:31:39;;;;;;;11.60;9.05;;;31.10;37.60;;;;;;6274062;28;20099;-84
2021/03/31 10:34:43;;;;;;;12.15;8.48;;;31.30;36.60;;;;;;6257640;28;20109;-84
2021/03/31 10:38:02;;;;;;;11.15;7.55;;;;;;;;;;6257421;28;20120;-87
2021/03/31 10:54:05;;;;;;;12.43;9.18;;;30.80;53.40;;;;;;6267463;28;20071;-86
2021/03/31 10:57:09;;;;;;;13.55;8.45;;;31.10;55.50;;;;;;6259160;28;20035;-90
2021/03/31 11:00:10;;;;;;;14.02;8.65;;;30.50;53.40;;;;;;6259234;28;20387;-85
2021/03/31 11:03:11;;;;;;;11.10;9.00;;;30.70;52.90;;;;;;6258349;28;20045;-86
2021/03/31 11:06:11;;;;;;;12.40;8.70;;;30.50;54.60;;;;;;6257083;28;20050;-86
2021/03/31 11:09:12;;;;;;;14.13;9.98;;;30.60;54.20;;;;;;6259006;28;20352;-85
2021/03/31 11:12:13;;;;;;;12.87;8.93;;;30.60;54.30;;;;;;6274419;28;20384;-86
2021/03/31 11:15:17;;;;;;;10.63;8.93;;;31.50;55.10;;;;;;6258139;28;20024;-84
2021/03/31 11:18:44;;;;;;;13.23;8.82;;;30.50;55.10;;;;;;6258306;28;20029;-85
2021/03/31 11:28:30;;;;;;;13.75;8.77;;;30.30;50.60;;;;;;6291682;28;20032;-81
2021/03/31 11:31:31;;;;;;;11.43;8.90;;;30.20;55.00;;;;;;6274325;28;20102;-86
2021/03/31 11:34:32;;;;;;;13.97;8.53;;;30.20;54.90;;;;;;6274993;28;20277;-86
2021/03/31 11:37:32;;;;;;;17.30;8.57;;;30.20;55.30;;;;;;6258174;28;20374;-86
2021/03/31 11:40:33;;;;;;;13.15;7.68;;;30.00;54.80;;;;;;6259369;28;20041;-87
2021/03/31 11:43:34;;;;;;;11.60;7.30;;;30.10;55.60;;;;;;6262218;28;20059;-86
2021/03/31 11:46:34;;;;;;;9.20;7.45;;;30.20;55.00;;;;;;6262304;28;20033;-84
2021/03/31 11:49:35;;;;;;;10.03;8.03;;;30.00;54.50;;;;;;6262433;28;20158;-85
2021/03/31 11:52:36;;;;;;;12.43;6.87;;;29.80;54.40;;;;;;6262854;28;20054;-84
2021/03/31 11:55:36;;;;;;;8.80;7.30;;;30.00;56.40;;;;;;6262675;28;20024;-79
2021/03/31 11:58:37;;;;;;;13.15;6.93;;;29.60;37.20;;;;;;6262061;28;20028;-82
2021/03/31 12:01:38;;;;;;;10.40;7.27;;;29.40;36.60;;;;;;6296363;28;20041;-80
2021/03/31 12:04:39;;;;;;;9.57;6.40;;;29.20;38.10;;;;;;6295082;28;20036;-84
2021/03/31 12:07:40;;;;;;;14.30;7.60;;;29.10;39.50;;;;;;6278185;28;20028;-82
2021/03/31 12:10:41;;;;;;;8.55;6.75;;;29.00;37.60;;;;;;6278045;28;20039;-82
2021/03/31 12:13:41;;;;;;;10.67;6.70;;;28.80;39.60;;;;;;6278175;28;20399;-83
2021/03/31 12:16:42;;;;;;;14.13;5.90;;;28.80;39.00;;;;;;6278118;28;20485;-85
2021/03/31 12:19:43;;;;;;;11.90;6.45;;;28.60;37.70;;;;;;6278027;28;20028;-81
2021/03/31 12:22:44;;;;;;;9.07;5.80;;;28.50;38.10;;;;;;6277694;28;20093;-80
2021/03/31 12:25:45;;;;;;;8.57;5.22;;;28.50;36.50;;;;;;6245211;28;20481;-80
2021/03/31 12:28:56;;;;;;;9.70;5.68;;;28.30;37.60;;;;;;6294857;28;20035;-83
2021/03/31 12:31:56;;;;;;;9.30;5.50;;;28.70;37.00;;;;;;6294080;28;20028;-84
2021/03/31 12:34:57;;;;;;;8.97;4.90;;;28.20;36.90;;;;;;6277619;28;20029;-82
2021/03/31 12:37:58;;;;;;;10.43;5.07;;;28.10;39.00;;;;;;6294188;28;20648;-81
2021/03/31 12:40:58;;;;;;;8.17;5.63;;;28.30;38.50;;;;;;6293946;28;20050;-81
2021/03/31 12:43:59;;;;;;;7.77;4.43;;;28.00;38.70;;;;;;6277051;28;20041;-81
2021/03/31 12:47:00;;;;;;;8.60;5.00;;;27.90;38.20;;;;;;6294160;28;20028;-81
2021/03/31 12:50:05;;;;;;;9.63;4.50;;;28.60;38.30;;;;;;6260383;28;20851;-90
2021/03/31 12:56:12;;;;;;;6.65;4.57;;;27.60;36.10;;;;;;6277506;28;20028;-83
2021/03/31 12:59:13;;;;;;;8.27;5.00;;;27.80;39.60;;;;;;6277231;28;20125;-84
2021/03/31 13:02:14;;;;;;;8.73;4.67;;;27.60;40.60;;;;;;6259472;28;20482;-84
2021/03/31 13:05:14;;;;;;;11.77;5.00;;;27.50;39.70;;;;;;6260073;28;20031;-84
2021/03/31 13:08:15;;;;;;;10.83;4.73;;;27.60;41.50;;;;;;6276607;28;20037;-85
2021/03/31 13:11:16;;;;;;;6.40;4.05;;;27.60;40.20;;;;;;6277139;28;20115;-81
2021/03/31 13:17:34;;;;;;;9.53;4.40;;;27.60;36.60;;;;;;6292241;28;20036;-81
2021/03/31 13:27:21;;;;;;;5.60;4.03;;;27.50;49.90;;;;;;6274033;28;20029;-81
2021/03/31 13:30:35;;;;;;;7.50;3.60;;;27.50;31.40;;;;;;6292295;28;20458;-81
2021/03/31 13:33:42;;;;;;;10.05;3.72;;;27.30;48.70;;;;;;6291630;28;20078;-81
2021/03/31 13:36:52;;;;;;;8.30;3.90;;;27.50;33.30;;;;;;6291468;28;20117;-81
2021/03/31 13:39:54;;;;;;;8.90;4.03;;;26.90;31.60;;;;;;6292538;28;20024;-82
2021/03/31 13:42:54;;;;;;;9.18;4.00;;;27.20;38.00;;;;;;6293801;28;20053;-81
2021/03/31 13:45:55;;;;;;;6.33;3.73;;;27.20;36.00;;;;;;6292264;28;20083;-81
2021/03/31 13:49:11;;;;;;;7.47;3.73;;;27.10;34.10;;;;;;6275239;28;20039;-81
2021/03/31 13:52:24;;;;;;;6.22;3.22;;;27.00;34.20;;;;;;6274982;28;20708;-84
2021/03/31 13:55:27;;;;;;;6.07;3.47;;;27.10;37.40;;;;;;6261305;28;20081;-80
2021/03/31 13:58:28;;;;;;;7.15;3.63;;;27.30;38.70;;;;;;6275993;28;20024;-80
2021/03/31 14:01:28;;;;;;;6.35;3.55;;;27.60;36.40;;;;;;6289899;28;20102;-80
2021/03/31 14:04:29;;;;;;;8.97;3.57;;;27.50;35.50;;;;;;6274241;28;20052;-81
2021/03/31 14:07:30;;;;;;;12.50;3.83;;;27.40;32.40;;;;;;6291403;28;20110;-81
2021/03/31 14:10:31;;;;;;;11.77;3.27;;;27.40;35.20;;;;;;6287675;28;20037;-79
2021/03/31 14:13:31;;;;;;;6.32;3.10;;;27.30;36.00;;;;;;6290240;28;20157;-80
2021/03/31 14:16:34;;;;;;;9.27;3.20;;;27.40;35.60;;;;;;6293258;28;20474;-80
2021/03/31 14:19:39;;;;;;;6.28;3.10;;;27.10;34.10;;;;;;6291376;28;20263;-80
2021/03/31 14:22:40;;;;;;;7.15;3.28;;;27.60;31.50;;;;;;6276056;28;20040;-80
2021/03/31 14:25:41;;;;;;;10.07;4.13;;;27.10;35.20;;;;;;6258271;28;20471;-80
2021/03/31 14:28:41;;;;;;;7.73;3.37;;;27.20;35.70;;;;;;6291443;28;20545;-80
2021/03/31 14:31:42;;;;;;;7.37;3.30;;;26.70;49.00;;;;;;6258214;28;20028;-80
2021/03/31 14:34:43;;;;;;;7.23;3.47;;;27.20;48.20;;;;;;6291304;28;20035;-80
2021/03/31 14:37:44;;;;;;;9.20;3.70;;;27.00;33.40;;;;;;6258545;28;20028;-80
2021/03/31 14:40:44;;;;;;;5.77;3.30;;;26.80;34.70;;;;;;6274662;28;20040;-79
2021/03/31 14:43:45;;;;;;;7.67;3.17;;;26.50;33.60;;;;;;6292332;28;20045;-83
2021/03/31 14:46:45;;;;;;;9.63;3.40;;;26.10;34.90;;;;;;6274441;28;20509;-80
2021/03/31 14:49:46;;;;;;;7.10;3.33;;;26.30;35.50;;;;;;6292628;28;20059;-79
2021/03/31 14:59:32;;;;;;;10.05;3.38;;;26.30;38.20;;;;;;6277891;28;20138;-80
2021/03/31 15:02:32;;;;;;;10.48;3.83;;;26.40;37.20;;;;;;6290839;28;20059;-79
2021/03/31 15:05:33;;;;;;;7.57;3.23;;;26.50;37.10;;;;;;6272407;28;20041;-79
2021/03/31 15:08:34;;;;;;;7.00;3.30;;;26.50;37.80;;;;;;6289206;28;20032;-79
2021/03/31 15:11:34;;;;;;;5.93;3.33;;;26.50;38.80;;;;;;6292368;28;20406;-80
2021/03/31 15:14:35;;;;;;;9.70;3.20;;;26.40;37.90;;;;;;6276954;28;20029;-80
2021/03/31 15:17:35;;;;;;;10.53;3.73;;;26.40;38.50;;;;;;6296043;28;20039;-79
2021/03/31 15:20:54;;;;;;;17.57;4.17;;;26.50;38.40;;;;;;6297764;28;20028;-80
2021/03/31 15:23:55;;;;;;;12.45;4.00;;;26.40;34.60;;;;;;6296113;28;20097;-80
2021/03/31 15:26:55;;;;;;;10.30;3.27;;;26.40;37.00;;;;;;6295871;28;20486;-80
2021/03/31 15:29:56;;;;;;;9.20;4.10;;;26.60;38.30;;;;;;6296067;28;20394;-80
2021/03/31 15:32:57;;;;;;;6.37;3.30;;;26.30;39.60;;;;;;6296871;28;20485;-79
2021/03/31 15:35:57;;;;;;;6.83;3.40;;;26.30;39.30;;;;;;6296593;28;20024;-79
2021/03/31 15:38:58;;;;;;;7.40;3.20;;;26.30;37.90;;;;;;6295758;28;20032;-80
2021/03/31 15:41:59;;;;;;;7.17;3.53;;;26.10;37.90;;;;;;6295177;28;20060;-80
2021/03/31 15:45:01;;;;;;;6.72;3.00;;;26.00;35.30;;;;;;6295612;28;20257;-80
2021/03/31 15:48:01;;;;;;;;;;;26.00;35.80;;;;;;6297448;28;20028;-79
2021/03/31 15:51:02;;;;;;;7.22;3.45;;;26.00;39.10;;;;;;6295507;28;19931;-85
2021/03/31 15:54:03;;;;;;;11.00;4.23;;;26.00;50.10;;;;;;6262001;28;20028;-84
2021/03/31 15:57:04;;;;;;;7.57;3.30;;;26.00;49.50;;;;;;6261956;28;20032;-82
2021/03/31 16:00:08;;;;;;;7.40;4.30;;;25.80;49.00;;;;;;6295033;28;20036;-80
2021/03/31 16:03:11;;;;;;;8.38;3.55;;;26.50;51.90;;;;;;6294854;28;20637;-81
2021/03/31 16:06:11;;;;;;;5.40;3.65;;;26.20;39.70;;;;;;6262409;28;20375;-81
2021/03/31 16:09:12;;;;;;;6.97;3.37;;;25.50;38.70;;;;;;6278400;28;20063;-82
2021/03/31 16:12:13;;;;;;;6.30;4.00;;;25.60;37.80;;;;;;6261740;28;20044;-81
2021/03/31 16:15:13;;;;;;;8.00;4.60;;;25.50;38.50;;;;;;6290654;28;20203;-83
2021/03/31 16:18:14;;;;;;;7.67;3.63;;;25.40;38.20;;;;;;6257853;28;20036;-83
2021/03/31 16:21:15;;;;;;;7.20;4.30;;;25.30;39.30;;;;;;6261908;28;20068;-86
2021/03/31 16:24:15;;;;;;;10.80;4.00;;;25.20;42.90;;;;;;6261948;28;20040;-87
2021/03/31 16:27:17;;;;;;;9.00;3.83;;;25.30;43.00;;;;;;6260539;28;20474;-92
2021/03/31 16:33:37;;;;;;;5.53;3.20;;;25.00;42.40;;;;;;6279962;28;20029;-81
2021/03/31 16:36:41;;;;;;;9.20;3.93;;;24.90;41.90;;;;;;6277298;28;20156;-83
2021/03/31 16:39:41;;;;;;;8.65;3.92;;;24.80;45.70;;;;;;6278065;28;20374;-83
2021/03/31 16:42:43;;;;;;;13.63;4.77;;;24.80;45.10;;;;;;6277194;28;20056;-81
2021/03/31 16:45:43;;;;;;;7.45;3.58;;;24.70;43.50;;;;;;6294140;28;20029;-81
2021/03/31 16:48:44;;;;;;;8.50;3.60;;;24.60;42.50;;;;;;6294056;28;20043;-81
2021/03/31 16:51:45;;;;;;;8.50;3.73;;;24.50;44.90;;;;;;6277058;28;20036;-83
2021/03/31 16:54:45;;;;;;;7.00;4.10;;;24.40;44.40;;;;;;6258163;28;20024;-82